createdAt,value
2022-12-04T00:01:59.469Z,97241.59
2022-12-04T00:12:02.327Z,97237.91
2022-12-04T00:22:05.347Z,97231.50
2022-12-04T00:32:07.900Z,97222.94
2022-12-04T00:42:10.588Z,97233.38
2022-12-04T00:52:13.029Z,97237.31
2022-12-04T01:02:16.197Z,97233.63
2022-12-04T01:12:20.969Z,97230.12
2022-12-04T01:22:23.840Z,97240.34
2022-12-04T01:32:26.225Z,97234.19
2022-12-04T01:42:28.944Z,97238.72
2022-12-04T01:52:32.030Z,97231.50
2022-12-04T02:02:37.492Z,97221.69
2022-12-04T02:12:51.612Z,97210.78
2022-12-04T02:23:03.502Z,97190.03
2022-12-04T02:33:17.965Z,97184.12
2022-12-04T02:43:41.937Z,97180.19
2022-12-04T02:54:08.137Z,97187.34
2022-12-04T03:04:25.974Z,97183.09
2022-12-04T03:14:36.085Z,97179.34
2022-12-04T03:24:45.290Z,97190.03
2022-12-04T03:35:06.581Z,97193.53
2022-12-04T03:45:44.938Z,97195.13
2022-12-04T03:55:58.946Z,97193.28
2022-12-04T04:06:06.459Z,97186.91
2022-12-04T04:16:32.278Z,97174.63
2022-12-04T04:26:38.184Z,97168.25
2022-12-04T04:37:08.452Z,97170.31
2022-12-04T04:47:19.372Z,97174.47
2022-12-04T04:57:34.604Z,97169.16
2022-12-04T05:07:37.126Z,97178.19
2022-12-04T05:17:39.644Z,97184.69
2022-12-04T05:27:42.460Z,97199.09
2022-12-04T05:37:46.007Z,97194.56
2022-12-04T05:47:48.455Z,97206.25
2022-12-04T05:57:50.815Z,97222.03
2022-12-04T06:07:53.220Z,97227.34
2022-12-04T06:17:55.712Z,97233.28
2022-12-04T06:27:58.017Z,97237.22
2022-12-04T06:38:00.321Z,97247.66
2022-12-04T06:48:03.008Z,97260.62
2022-12-04T06:58:05.273Z,97258.72
2022-12-04T07:08:07.746Z,97262.97
2022-12-04T07:18:10.343Z,97261.06
2022-12-04T07:28:13.254Z,97255.13
2022-12-04T07:38:16.059Z,97260.75
2022-12-04T07:48:18.747Z,97260.62
2022-12-04T07:58:21.145Z,97259.44
2022-12-04T08:08:24.112Z,97258.81
2022-12-04T08:18:26.472Z,97256.78
2022-12-04T08:28:29.873Z,97252.31
2022-12-04T08:38:32.295Z,97254.09
2022-12-04T08:48:35.504Z,97252.59
2022-12-04T08:58:38.908Z,97267.41
2022-12-04T09:08:42.203Z,97267.09
2022-12-04T09:18:46.358Z,97264.34
2022-12-04T09:28:50.887Z,97266.34
2022-12-04T09:38:55.200Z,97283.81
2022-12-04T09:49:02.758Z,97278.81
2022-12-04T09:59:26.937Z,97283.03
2022-12-04T10:09:38.933Z,97282.94
2022-12-04T10:19:54.475Z,97284.34
2022-12-04T10:30:08.765Z,97300.34
2022-12-04T10:40:38.799Z,97299.56
2022-12-04T10:50:41.963Z,97278.34
2022-12-04T11:00:46.972Z,97292.06
2022-12-04T11:11:01.679Z,97281.84
2022-12-04T11:21:08.251Z,97269.69
2022-12-04T11:31:18.738Z,97268.03
2022-12-04T11:41:30.984Z,97252.03
2022-12-04T11:51:39.957Z,97252.47
2022-12-04T12:02:01.196Z,97250.13
2022-12-04T12:12:15.013Z,97244.78
2022-12-04T12:22:17.567Z,97237.19
2022-12-04T12:32:34.950Z,97222.22
2022-12-04T12:42:58.587Z,97215.78
2022-12-04T12:53:09.407Z,97220.91
2022-12-04T13:03:29.302Z,97204.41
2022-12-04T13:13:35.883Z,97190.16
2022-12-04T13:23:53.560Z,97181.78
2022-12-04T13:34:16.207Z,97175.19
2022-12-04T13:44:24.647Z,97167.88
2022-12-04T13:54:37.634Z,97174.75
2022-12-04T14:04:53.814Z,97165.78
2022-12-04T14:15:09.667Z,97158.75
2022-12-04T14:25:15.340Z,97174.84
2022-12-04T14:35:23.472Z,97182.88
2022-12-04T14:45:44.535Z,97199.94
2022-12-04T14:56:07.115Z,97204.44
2022-12-04T15:06:22.430Z,97202.28
2022-12-04T15:16:25.662Z,97181.97
2022-12-04T15:26:28.725Z,97183.94
2022-12-04T15:36:47.823Z,97185.28
2022-12-04T15:46:51.042Z,97176.44
2022-12-04T15:57:14.723Z,97183.97
2022-12-04T16:07:24.501Z,97203.09
2022-12-04T16:17:32.638Z,97220.94
2022-12-04T16:27:35.369Z,97225.31
2022-12-04T16:37:38.138Z,97228.59
2022-12-04T16:47:40.885Z,97226.97
2022-12-04T16:57:43.861Z,97232.16
2022-12-04T17:07:46.879Z,97237.31
2022-12-04T17:17:50.269Z,97239.78
2022-12-04T17:27:53.184Z,97264.59
2022-12-04T17:37:57.422Z,97287.56
2022-12-04T17:48:03.659Z,97287.56
2022-12-04T17:58:06.440Z,97287.09
2022-12-04T18:08:09.092Z,97305.31
2022-12-04T18:18:11.880Z,97294.50
2022-12-04T18:28:14.426Z,97292.44
2022-12-04T18:38:17.207Z,97302.37
2022-12-04T18:48:19.872Z,97316.28
2022-12-04T18:58:23.320Z,97319.41
2022-12-04T19:08:31.357Z,97322.06
2022-12-04T19:18:37.203Z,97329.03
2022-12-04T19:28:39.881Z,97316.28
2022-12-04T19:38:43.659Z,97322.06
2022-12-04T19:48:50.492Z,97314.88
2022-12-04T19:58:55.187Z,97302.37
2022-12-04T20:09:01.690Z,97317.19
2022-12-04T20:19:08.399Z,97327.41
2022-12-04T20:29:16.231Z,97355.81
2022-12-04T20:39:20.166Z,97364.19
2022-12-04T20:49:23.223Z,97373.69
2022-12-04T20:59:26.352Z,97391.88
2022-12-04T21:09:29.418Z,97397.16
2022-12-04T21:19:32.637Z,97402.41
2022-12-04T21:29:38.949Z,97397.47
2022-12-04T21:39:42.989Z,97364.63
2022-12-04T21:49:45.998Z,97363.69
2022-12-04T21:59:49.201Z,97413.69
2022-12-04T22:09:51.871Z,97443.78
2022-12-04T22:19:55.100Z,97456.81
2022-12-04T22:29:57.975Z,97506.53
2022-12-04T22:40:00.648Z,97505.50
2022-12-04T22:50:04.758Z,97508.09
2022-12-04T23:00:09.755Z,97489.62
2022-12-04T23:10:12.484Z,97505.06
2022-12-04T23:20:15.078Z,97522.25
2022-12-04T23:30:21.392Z,97514.84
2022-12-04T23:40:26.860Z,97515.66
2022-12-04T23:50:29.368Z,97528.19
